ICEPV LIRZ-LIRZ
Flight info
| Callsign | ICEPV |
|---|---|
| Flight time | N/A |
| Altitude | 3000 |
| Route | TRAFFIC PATTERN |
| Aircraft | P208/L-SGY/S |
Departure
| Time | 2026-04-27 21:23 |
|---|---|
| Airport | Perugia San Francesco d'Assisi – Umbria International Airport (LIRZ) |
Arrival
| Time | N/A |
|---|---|
| Airport | Perugia San Francesco d'Assisi – Umbria International Airport (LIRZ) |
| Time | Latitude | Longitude | Altitude | Speed | Heading |
|---|---|---|---|---|---|
| 2026-04-27 21:15 | 43.09725 | 12.50319 | 664 ft | 0 kts | 167° |
| 2026-04-27 21:17 | 43.09724 | 12.50319 | 664 ft | 0 kts | 141° |
| 2026-04-27 21:17 | 43.09696 | 12.50346 | 661 ft | 7 kts | 166° |
| 2026-04-27 21:17 | 43.09664 | 12.50359 | 663 ft | 4 kts | 156° |
| 2026-04-27 21:18 | 43.09639 | 12.50379 | 663 ft | 2 kts | 94° |
| 2026-04-27 21:18 | 43.09623 | 12.50407 | 663 ft | 3 kts | 165° |
| 2026-04-27 21:18 | 43.09587 | 12.50434 | 663 ft | 14 kts | 152° |
| 2026-04-27 21:18 | 43.09445 | 12.50493 | 663 ft | 27 kts | 155° |
| 2026-04-27 21:19 | 43.09305 | 12.50595 | 663 ft | 17 kts | 148° |
| 2026-04-27 21:19 | 43.09200 | 12.50688 | 663 ft | 20 kts | 149° |
| 2026-04-27 21:19 | 43.09099 | 12.50794 | 663 ft | 16 kts | 146° |
| 2026-04-27 21:20 | 43.09034 | 12.51004 | 663 ft | 9 kts | 115° |
| 2026-04-27 21:20 | 43.09027 | 12.51077 | 663 ft | 7 kts | 91° |
| 2026-04-27 21:20 | 43.09031 | 12.51096 | 664 ft | 2 kts | 67° |
| 2026-04-27 21:20 | 43.09032 | 12.51098 | 664 ft | 4 kts | 41° |
| 2026-04-27 21:21 | 43.09072 | 12.51135 | 664 ft | 5 kts | 14° |
| 2026-04-27 21:21 | 43.09097 | 12.51144 | 664 ft | 13 kts | 7° |
| 2026-04-27 21:21 | 43.09354 | 12.51227 | 663 ft | 60 kts | 17° |
| 2026-04-27 21:21 | 43.09802 | 12.51397 | 741 ft | 75 kts | 12° |
| 2026-04-27 21:22 | 43.10336 | 12.51639 | 811 ft | 83 kts | 13° |
| 2026-04-27 21:22 | 43.10840 | 12.51885 | 951 ft | 76 kts | 15° |
| 2026-04-27 21:22 | 43.11317 | 12.52106 | 1188 ft | 73 kts | 14° |
| 2026-04-27 21:22 | 43.11762 | 12.52488 | 1283 ft | 80 kts | 51° |
| 2026-04-27 21:23 | 43.11932 | 12.53237 | 1448 ft | 86 kts | 83° |
| 2026-04-27 21:23 | 43.11842 | 12.54008 | 1584 ft | 86 kts | 119° |
| 2026-04-27 21:23 | 43.11392 | 12.54459 | 1758 ft | 80 kts | 161° |
| 2026-04-27 21:23 | 43.10851 | 12.54535 | 1936 ft | 83 kts | 195° |
| 2026-04-27 21:24 | 43.10220 | 12.54333 | 1936 ft | 100 kts | 200° |
| 2026-04-27 21:24 | 43.09543 | 12.54033 | 1834 ft | 103 kts | 202° |
| 2026-04-27 21:24 | 43.08888 | 12.53718 | 1819 ft | 98 kts | 204° |
| 2026-04-27 21:24 | 43.08230 | 12.53361 | 1761 ft | 101 kts | 205° |
| 2026-04-27 21:25 | 43.07589 | 12.53098 | 1842 ft | 94 kts | 199° |
| 2026-04-27 21:25 | 43.06923 | 12.52911 | 1767 ft | 97 kts | 187° |
| 2026-04-27 21:25 | 43.06251 | 12.53047 | 1708 ft | 102 kts | 162° |
| 2026-04-27 21:25 | 43.05627 | 12.53527 | 1636 ft | 107 kts | 153° |
| 2026-04-27 21:26 | 43.04978 | 12.54030 | 1556 ft | 104 kts | 156° |
| 2026-04-27 21:26 | 43.04330 | 12.54431 | 1473 ft | 103 kts | 161° |
| 2026-04-27 21:26 | 43.03657 | 12.54789 | 1571 ft | 98 kts | 162° |
| 2026-04-27 21:26 | 43.03030 | 12.55097 | 1729 ft | 94 kts | 165° |
| 2026-04-27 21:27 | 43.02458 | 12.55387 | 1966 ft | 91 kts | 161° |
| 2026-04-27 21:27 | 43.01882 | 12.55688 | 2090 ft | 96 kts | 166° |
| 2026-04-27 21:27 | 43.01154 | 12.55944 | 1923 ft | 112 kts | 171° |
| 2026-04-27 21:27 | 43.00386 | 12.56114 | 1789 ft | 113 kts | 173° |
| 2026-04-27 21:28 | 42.99594 | 12.56271 | 1630 ft | 114 kts | 170° |
| 2026-04-27 21:28 | 42.98854 | 12.56588 | 1508 ft | 112 kts | 159° |
| 2026-04-27 21:28 | 42.98161 | 12.56962 | 1379 ft | 112 kts | 161° |